Ogaki, Japan
Current Conditions -  °F | °C
As of 12:00 PM on Monday 24 Nov 2014 (Local Time) from RJGG Reporting Station
Few Clouds Few Clouds  
Wind Chill: 61°   Ceiling: Unl
Heat Index: 61°   Visibility: 6mi
Dew Point: 39°   Wind: 8mph
Humidity: 45%   Direction: 340°NNW
Pressure: 30.15"   Gusts: NA
Location:  35.37°N, 136.61°E
Report Text: RJGG 240300Z 34007KT 9999 FEW030 16/04 Q1021 NOSIG
Loading
Personal Weather Stations






























Interactive Weather Map New forecast layout! Learn more

10-Day Weather Forecast

Advertisements
Track Severe Weather on mobile